Create Tblcommutelog Verified Points Advance Search
| # | Trip ID | Id Commuter | Trip Date | Trip Num | Current Lat | Current Lng | Delta Distance | Current Time | Activity | Activity Confidence | Current Speed | |
|---|---|---|---|---|---|---|---|---|---|---|---|---|
| 70501 | 251216_784278_16513851_0804 | 784278 | (not set) | (not set) | 39.117053817078 | -77.162479634258 | 11.7774 | 2025-12-16 08:46:19 | in_vehicle | 100 | 8.2165815801944 | |
| 70502 | 251216_784278_16513851_0804 | 784278 | (not set) | (not set) | 39.115080424581 | -77.161141782364 | 11.9314 | 2025-12-16 08:46:30 | in_vehicle | 100 | 10.532244941751 | |
| 70503 | 251216_770658_6426227_0830 | 770658 | (not set) | (not set) | 38.885416200885 | -77.062316572701 | 5.5279 | 2025-12-16 08:46:42 | in_vehicle | 100 | 8.5518610244352 | |
| 70504 | 251216_753795_16499475_0811 | 753795 | (not set) | (not set) | 38.902674021801 | -77.005026754637 | 10.5256 | 2025-12-16 08:46:56 | in_vehicle | 100 | 6.4194837590637 | |
| 70505 | 251216_784811_6461772_0758 | 784811 | (not set) | (not set) | 38.892105363876 | -77.048559718208 | 7.0605 | 2025-12-16 08:47:04 | unknown | 100 | 1.4439368065303 | |
| 70506 | 251216_770658_6426227_0830 | 770658 | (not set) | (not set) | 38.883314669178 | -77.061258113689 | 5.6837 | 2025-12-16 08:47:13 | still | 33 | 1.4662887694797 | |
| 70507 | 251216_765519_16479164_0811 | 765519 | (not set) | (not set) | 38.812915342964 | -77.044292617331 | 8.4389 | 2025-12-16 08:47:21 | in_vehicle | 100 | 3.1963307017622 | |
| 70508 | 251216_785762_6438355_0829 | 785762 | (not set) | (not set) | 38.9138 | -77.0396239 | 0.8403 | 2025-12-16 08:36:29 | on_bicycle | 100 | 3.5807844644917 | |
| 70509 | 251216_790533_16515488_0758 | 790533 | (not set) | (not set) | 39.12171817918 | -76.854716473579 | 16.3291 | 2025-12-16 08:47:36 | in_vehicle | 100 | 9.9510939050667 | |
| 70510 | 251216_769783_16441814_0800 | 769783 | (not set) | (not set) | 38.976470715169 | -77.015464110007 | 12.5761 | 2025-12-16 08:49:32 | on_foot | 100 | 0.45598004416748 | |
| 70511 | 251216_770933_16500693_0752 | 770933 | (not set) | (not set) | 38.900870116214 | -77.075488598707 | 21.6225 | 2025-12-16 08:47:58 | unknown | 100 | 10.138850393842 | |
| 70512 | 251216_784414_16503658_0824 | 784414 | (not set) | (not set) | 38.887660481836 | -77.065067948494 | 10.6062 | 2025-12-16 08:48:09 | in_vehicle | 100 | 9.1017193129901 | |
| 70513 | 251216_765519_16479164_0811 | 765519 | (not set) | (not set) | 38.812575034039 | -77.04191715304 | 8.5692 | 2025-12-16 08:48:21 | in_vehicle | 100 | 2.8342289019822 | |
| 70514 | 251216_784811_6461772_0758 | 784811 | (not set) | (not set) | 38.892107782041 | -77.044427467737 | 7.2833 | 2025-12-16 08:48:31 | unknown | 100 | 1.1399501104187 | |
| 70515 | 251216_770933_16500693_0752 | 770933 | (not set) | (not set) | 38.897664450436 | -77.068074436163 | 22.1457 | 2025-12-16 08:48:38 | unknown | 100 | 9.9153307643477 | |
| 70516 | 251216_790593_16516539_0803 | 790593 | (not set) | (not set) | 38.850805217623 | -77.410602606517 | 26.1831 | 2025-12-16 08:48:47 | in_vehicle | 100 | 2.8789328278809 | |
| 70517 | 251216_790593_16516539_0803 | 790593 | (not set) | (not set) | 38.850805217623 | -77.410602606517 | 26.1831 | 2025-12-16 08:48:47 | in_vehicle | 100 | 2.8789328278809 | |
| 70518 | 251216_776877_16494140_0820 | 776877 | (not set) | (not set) | 38.923350271729 | -77.196472790833 | 13.3415 | 2025-12-16 08:48:59 | in_vehicle | 100 | 12.593095925684 | |
| 70519 | 251216_761648_16500693_0826 | 761648 | (not set) | (not set) | 38.916069928331 | -76.999185312818 | 3.6804 | 2025-12-16 08:49:08 | on_bicycle | 100 | 3.0264557833469 | |
| 70520 | 251216_753795_16499475_0811 | 753795 | (not set) | (not set) | 38.89857524418 | -77.010339873452 | 10.8734 | 2025-12-16 08:49:12 | in_vehicle | 100 | -0.44703925898772 |